Time;durP1;ratioP1;P1;durP2;ratioP2;P2;SDS_P1;SDS_P2;PMS_P1;PMS_P2;Temp;Humidity;BMP_temperature;BMP_pressure;BME280_temperature;BME280_humidity;BME280_pressure;Samples;Min_cycle;Max_cycle;Signal;HPM_P1;HPM_P2
2021/01/08 00:02:14;;;;;;;5.55;1.60;;;;;;;2.71;95.33;101348.91;5071343;28;20424;-81
2021/01/08 00:04:39;;;;;;;5.30;1.73;;;;;;;2.73;95.33;101344.81;5071066;28;20017;-81
2021/01/08 00:07:05;;;;;;;6.30;1.90;;;;;;;2.70;95.15;101342.97;5071910;28;20270;-80
2021/01/08 00:09:30;;;;;;;4.90;1.83;;;;;;;2.72;95.06;101335.44;5070809;28;20077;-81
2021/01/08 00:11:55;;;;;;;4.63;1.57;;;;;;;2.74;94.92;101349.09;5070645;28;20397;-82
2021/01/08 00:14:21;;;;;;;5.57;1.70;;;;;;;2.76;95.04;101350.06;5070945;28;20031;-79
2021/01/08 00:16:47;;;;;;;3.13;1.45;;;;;;;2.86;94.28;101342.25;5071189;28;20128;-80
2021/01/08 00:19:13;;;;;;;4.38;0.95;;;;;;;2.75;94.27;101348.31;5070065;28;20028;-82
2021/01/08 00:21:42;;;;;;;8.60;2.60;;;;;;;2.82;94.24;101345.38;5070417;28;20030;-82
2021/01/08 00:24:11;;;;;;;4.30;1.47;;;;;;;2.82;94.37;101335.22;5070743;28;20553;-84
2021/01/08 00:26:37;;;;;;;1.63;0.93;;;;;;;2.87;93.90;101354.16;5071555;28;20048;-82
2021/01/08 00:29:03;;;;;;;4.40;1.67;;;;;;;2.80;93.90;101341.88;5070434;28;20157;-79
2021/01/08 00:31:40;;;;;;;4.73;1.27;;;;;;;2.75;94.37;101345.78;5071461;28;20020;-81
2021/01/08 00:34:06;;;;;;;3.50;1.02;;;;;;;2.80;94.11;101349.47;5070583;28;20393;-81
2021/01/08 00:36:33;;;;;;;9.03;1.13;;;;;;;2.78;94.33;101345.97;5067474;28;20028;-80
2021/01/08 00:38:58;;;;;;;3.97;0.98;;;;;;;2.78;94.36;101345.97;5070219;28;20024;-81
2021/01/08 00:41:33;;;;;;;4.22;1.30;;;;;;;2.78;94.33;101341.78;5070144;28;20074;-81
2021/01/08 00:43:59;;;;;;;2.73;1.03;;;;;;;2.87;94.32;101340.59;5070135;28;20154;-81
2021/01/08 00:46:40;;;;;;;6.50;1.52;;;;;;;2.89;94.04;101334.81;5070324;28;20044;-81
2021/01/08 00:49:07;;;;;;;6.27;1.20;;;;;;;2.90;94.21;101341.66;5069921;28;20390;-81
2021/01/08 00:51:32;;;;;;;;;;;;;;;2.91;94.01;101335.78;5071529;28;20051;-81
2021/01/08 00:53:59;;;;;;;2.50;1.07;;;;;;;2.93;94.20;101330.84;5071562;28;20370;-81
2021/01/08 00:56:24;;;;;;;;;;;;;;;2.86;94.20;101338.84;5071123;28;20103;-82
2021/01/08 00:58:49;;;;;;;2.23;0.60;;;;;;;2.91;93.73;101333.25;5071212;28;19997;-80
2021/01/08 01:01:18;;;;;;;2.40;0.40;;;;;;;2.77;93.31;101323.91;5069840;28;20020;-82
2021/01/08 01:03:43;;;;;;;3.37;0.40;;;;;;;2.73;93.13;101338.06;5069945;28;20023;-82
2021/01/08 01:06:09;;;;;;;1.70;0.30;;;;;;;2.69;92.92;101335.25;5071213;28;20390;-82
2021/01/08 01:08:34;;;;;;;1.20;0.38;;;;;;;2.62;93.27;101334.00;5075020;28;20041;-82
2021/01/08 01:11:00;;;;;;;5.80;0.50;;;;;;;2.63;93.39;101335.75;5076505;28;20025;-82
2021/01/08 01:13:25;;;;;;;3.65;0.30;;;;;;;2.62;93.46;101338.19;5074604;28;20497;-83
2021/01/08 01:15:51;;;;;;;0.57;0.30;;;;;;;2.60;93.18;101343.16;5072918;28;20453;-81
2021/01/08 01:18:16;;;;;;;4.17;0.30;;;;;;;2.63;93.55;101345.91;5071324;28;20035;-82
2021/01/08 01:20:41;;;;;;;0.82;0.30;;;;;;;2.58;93.57;101337.09;5071916;28;20029;-81
2021/01/08 01:23:07;;;;;;;0.47;0.30;;;;;;;2.62;93.64;101343.25;5072178;28;20480;-81
2021/01/08 01:25:33;;;;;;;4.38;0.65;;;;;;;2.61;93.77;101347.47;5072059;28;20145;-80
2021/01/08 01:27:58;;;;;;;1.65;0.50;;;;;;;2.54;94.01;101345.28;5070993;28;20028;-82
2021/01/08 01:30:23;;;;;;;2.47;0.33;;;;;;;2.56;93.93;101348.81;5071589;28;20032;-81
2021/01/08 01:32:48;;;;;;;1.75;0.50;;;;;;;2.56;94.15;101350.47;5074627;28;20417;-81
2021/01/08 01:35:14;;;;;;;2.53;0.60;;;;;;;2.59;93.99;101350.66;5073657;28;20025;-80
2021/01/08 01:37:39;;;;;;;1.23;0.25;;;;;;;2.56;94.39;101345.38;5073476;28;20036;-82
2021/01/08 01:40:06;;;;;;;1.60;0.40;;;;;;;2.64;94.13;101351.84;5074938;28;20027;-81
2021/01/08 01:42:31;;;;;;;1.37;0.40;;;;;;;2.68;94.21;101353.78;5073761;28;20035;-84
2021/01/08 01:44:57;;;;;;;1.02;0.35;;;;;;;2.61;94.39;101346.59;5073525;28;20020;-82
2021/01/08 01:47:22;;;;;;;1.08;0.50;;;;;;;2.61;94.97;101351.66;5072471;28;20082;-82
2021/01/08 01:49:48;;;;;;;2.13;0.60;;;;;;;2.63;95.01;101356.03;5073410;28;20104;-82
2021/01/08 01:52:13;;;;;;;3.40;0.55;;;;;;;2.69;94.66;101347.94;5073771;28;20024;-82
2021/01/08 01:54:39;;;;;;;2.30;0.57;;;;;;;2.63;95.10;101358.59;5073326;28;20122;-82
2021/01/08 01:57:04;;;;;;;5.75;0.60;;;;;;;2.72;95.04;101359.16;5073029;28;20029;-81
2021/01/08 01:59:30;;;;;;;1.83;0.50;;;;;;;2.76;94.90;101355.16;5073238;28;20035;-82
2021/01/08 02:01:59;;;;;;;1.10;0.47;;;;;;;2.77;94.84;101356.91;5073221;28;20024;-81
2021/01/08 02:04:24;;;;;;;11.23;0.77;;;;;;;2.81;94.90;101363.91;5073155;28;20024;-82
2021/01/08 02:06:50;;;;;;;5.03;0.43;;;;;;;2.83;94.60;101364.88;5072870;28;20516;-81
2021/01/08 02:09:17;;;;;;;4.00;0.85;;;;;;;2.81;94.64;101362.25;5074124;28;20097;-81
2021/01/08 02:11:47;;;;;;;1.60;0.50;;;;;;;2.81;94.69;101369.88;5072781;28;20056;-81
2021/01/08 02:14:20;;;;;;;1.23;0.40;;;;;;;2.81;94.38;101377.47;5071166;28;20061;-81
2021/01/08 02:16:49;;;;;;;2.27;0.40;;;;;;;2.80;93.97;101365.56;5072394;28;20115;-81
2021/01/08 02:19:25;;;;;;;3.30;1.90;;;;;;;2.79;94.15;101370.56;5072554;28;20539;-81
2021/01/08 02:22:04;;;;;;;2.42;0.45;;;;;;;2.75;94.22;101376.22;5072946;28;20054;-82
2021/01/08 02:24:39;;;;;;;1.30;0.50;;;;;;;2.79;94.04;101379.03;5072851;28;20067;-81
2021/01/08 02:27:04;;;;;;;3.17;0.50;;;;;;;2.77;94.06;101379.72;5073548;28;20028;-81
2021/01/08 02:29:31;;;;;;;3.60;0.60;;;;;;;2.83;94.03;101380.13;5072838;28;20043;-81
2021/01/08 02:31:57;;;;;;;1.10;0.90;;;;;;;2.75;94.06;101376.22;5072336;28;20028;-82
2021/01/08 02:34:23;;;;;;;1.40;0.45;;;;;;;2.72;94.49;101374.38;5072078;28;20024;-82
2021/01/08 02:36:50;;;;;;;1.30;0.50;;;;;;;2.77;94.34;101382.28;5067908;28;20029;-81
2021/01/08 02:39:16;;;;;;;1.67;0.60;;;;;;;2.79;94.39;101380.72;5073444;28;20440;-81
2021/01/08 02:41:44;;;;;;;1.45;0.65;;;;;;;2.79;94.60;101378.16;5072204;28;20016;-82
2021/01/08 02:44:13;;;;;;;3.63;0.67;;;;;;;2.80;94.41;101374.84;5071456;28;20123;-81
2021/01/08 02:46:38;;;;;;;0.97;0.47;;;;;;;2.82;94.24;101378.34;5073344;28;20104;-81
2021/01/08 02:49:03;;;;;;;5.47;0.60;;;;;;;2.81;93.95;101389.28;5074896;28;20056;-81
2021/01/08 02:51:29;;;;;;;0.97;0.50;;;;;;;2.76;93.91;101389.00;5072879;28;20536;-81
2021/01/08 02:53:58;;;;;;;7.20;0.57;;;;;;;2.82;93.94;101393.59;5073873;28;20024;-81
2021/01/08 02:56:32;;;;;;;2.73;0.47;;;;;;;2.82;93.95;101393.59;5072382;28;20099;-80
2021/01/08 02:58:59;;;;;;;2.13;0.60;;;;;;;2.75;93.98;101396.53;5072839;28;20028;-81
2021/01/08 03:01:25;;;;;;;2.77;0.50;;;;;;;2.83;94.01;101390.25;5071840;28;20055;-80
2021/01/08 03:03:51;;;;;;;4.43;0.47;;;;;;;2.80;94.06;101390.06;5072185;28;20021;-80
2021/01/08 03:06:17;;;;;;;2.08;0.57;;;;;;;2.82;94.02;101391.03;5072905;28;20023;-81
2021/01/08 03:08:43;;;;;;;0.77;0.40;;;;;;;2.83;93.82;101387.72;5072428;28;20038;-82
2021/01/08 03:11:11;;;;;;;1.85;0.50;;;;;;;2.80;94.32;101390.94;5072486;28;20494;-80
2021/01/08 03:13:38;;;;;;;3.03;0.53;;;;;;;2.82;94.16;101388.50;5072476;28;20032;-84
2021/01/08 03:16:05;;;;;;;2.27;0.50;;;;;;;2.80;94.23;101385.00;5068296;28;20024;-81
2021/01/08 03:18:30;;;;;;;;;;;;;;;2.77;94.63;101388.22;5072106;28;20047;-82
2021/01/08 03:20:55;;;;;;;2.20;0.50;;;;;;;2.83;94.57;101390.25;5071516;28;19912;-81
2021/01/08 03:23:20;;;;;;;1.58;0.47;;;;;;;2.83;94.47;101379.22;5072018;28;20191;-80
2021/01/08 03:25:46;;;;;;;4.80;0.60;;;;;;;2.77;94.65;101382.28;5071346;28;20048;-80
2021/01/08 03:28:11;;;;;;;3.30;0.70;;;;;;;2.78;94.40;101384.91;5071392;28;20271;-80
2021/01/08 03:30:36;;;;;;;2.17;0.73;;;;;;;2.82;94.61;101388.50;5072663;28;20030;-81
2021/01/08 03:33:02;;;;;;;8.40;1.13;;;;;;;2.84;94.52;101381.88;5072710;28;20030;-81
2021/01/08 03:35:27;;;;;;;1.10;0.40;;;;;;;2.85;94.29;101388.69;5071329;28;20285;-81
2021/01/08 03:37:52;;;;;;;3.85;0.50;;;;;;;2.81;94.48;101377.47;5070922;28;20047;-80
2021/01/08 03:40:18;;;;;;;1.80;0.30;;;;;;;2.83;94.63;101382.66;5071218;28;20036;-80
2021/01/08 03:42:43;;;;;;;3.00;0.70;;;;;;;2.78;94.91;101376.41;5070920;28;20035;-80
2021/01/08 03:45:09;;;;;;;5.90;0.70;;;;;;;2.81;94.94;101376.59;5072138;28;20048;-80
2021/01/08 03:47:34;;;;;;;2.72;0.43;;;;;;;2.86;95.07;101380.31;5071626;28;20412;-80
2021/01/08 03:49:59;;;;;;;2.60;0.43;;;;;;;2.86;94.80;101380.31;5071028;28;20043;-80
2021/01/08 03:52:25;;;;;;;2.37;0.77;;;;;;;2.87;94.77;101378.66;5072052;28;20485;-81
2021/01/08 03:54:50;;;;;;;5.27;0.50;;;;;;;2.89;94.91;101380.50;5070813;28;20314;-80
2021/01/08 03:57:15;;;;;;;2.80;0.40;;;;;;;2.88;94.90;101386.34;5070441;28;20035;-80
2021/01/08 03:59:41;;;;;;;3.53;0.80;;;;;;;2.85;94.92;101383.63;5070450;28;20274;-83
2021/01/08 04:02:06;;;;;;;4.10;0.88;;;;;;;2.95;94.80;101380.03;5071737;28;20027;-81
2021/01/08 04:04:31;;;;;;;2.77;0.40;;;;;;;2.97;94.33;101389.50;5070560;28;20028;-82
2021/01/08 04:06:56;;;;;;;5.20;0.60;;;;;;;2.98;94.56;101385.28;5071664;28;20301;-82
2021/01/08 04:09:22;;;;;;;0.93;0.40;;;;;;;2.91;94.66;101384.00;5070592;28;20021;-82
2021/01/08 04:11:47;;;;;;;7.30;0.70;;;;;;;2.94;94.65;101384.22;5070456;28;20032;-80
2021/01/08 04:14:13;;;;;;;0.75;0.40;;;;;;;2.93;94.84;101390.09;5070432;28;20278;-82
2021/01/08 04:16:40;;;;;;;1.58;0.40;;;;;;;2.89;94.78;101395.72;5070224;28;20077;-82
2021/01/08 04:19:06;;;;;;;1.10;0.40;;;;;;;2.93;94.63;101390.09;5071814;28;20028;-82
2021/01/08 04:21:31;;;;;;;4.72;0.70;;;;;;;2.94;94.85;101394.38;5070250;28;20539;-81
2021/01/08 04:23:57;;;;;;;1.70;0.60;;;;;;;2.92;94.81;101398.44;5071942;28;20028;-82
2021/01/08 04:26:22;;;;;;;4.90;0.60;;;;;;;2.92;94.89;101400.97;5072211;28;20505;-81
2021/01/08 04:28:48;;;;;;;1.73;0.55;;;;;;;2.97;94.94;101399.63;5071929;28;20262;-82
2021/01/08 04:31:14;;;;;;;3.75;0.52;;;;;;;2.92;94.88;101400.09;5073001;28;20024;-83
2021/01/08 04:33:42;;;;;;;;;;;;;;;2.90;94.83;101402.53;5073148;28;20383;-84
2021/01/08 04:36:08;;;;;;;4.13;0.63;;;;;;;2.91;94.86;101391.63;5070493;28;19919;-82
2021/01/08 04:38:35;;;;;;;1.10;0.40;;;;;;;2.80;94.89;101392.59;5071011;28;20029;-81
2021/01/08 04:41:00;;;;;;;;;;;;;;;2.83;94.44;101389.38;5071373;28;20441;-82
2021/01/08 04:43:26;;;;;;;5.33;0.80;;;;;;;2.72;94.76;101387.06;5071049;28;19954;-82
2021/01/08 04:45:51;;;;;;;1.30;0.50;;;;;;;2.79;94.59;101394.28;5070676;28;20122;-82
2021/01/08 04:48:17;;;;;;;5.03;0.70;;;;;;;2.80;94.52;101392.59;5070446;28;20025;-82
2021/01/08 04:50:43;;;;;;;4.47;0.55;;;;;;;2.85;94.36;101395.44;5070533;28;20036;-83
2021/01/08 04:53:09;;;;;;;2.07;0.40;;;;;;;2.77;94.52;101394.94;5070677;28;20035;-82
2021/01/08 04:55:36;;;;;;;2.78;0.75;;;;;;;2.82;94.27;101396.13;5070200;28;20379;-81
2021/01/08 04:58:04;;;;;;;0.97;0.40;;;;;;;2.81;94.13;101396.91;5070224;28;20032;-81
2021/01/08 05:00:29;;;;;;;3.00;0.33;;;;;;;2.80;93.98;101400.22;5070322;28;20024;-81
2021/01/08 05:02:55;;;;;;;2.78;0.40;;;;;;;2.76;94.21;101394.06;5070479;28;20035;-80
2021/01/08 05:05:20;;;;;;;1.48;0.40;;;;;;;2.79;94.27;101391.72;5068859;28;20036;-81
2021/01/08 05:07:46;;;;;;;2.08;0.90;;;;;;;2.79;94.31;101395.94;5073958;28;20083;-81
2021/01/08 05:10:12;;;;;;;0.70;0.40;;;;;;;2.80;94.21;101385.88;5074264;28;20031;-81
2021/01/08 05:12:41;;;;;;;2.42;0.70;;;;;;;2.79;94.16;101393.38;5074054;28;20020;-81
2021/01/08 05:15:14;;;;;;;1.57;0.50;;;;;;;2.81;94.42;101394.38;5073845;28;20025;-82
2021/01/08 05:17:44;;;;;;;0.83;0.40;;;;;;;2.88;94.37;101403.22;5074744;28;20059;-80
2021/01/08 05:20:10;;;;;;;2.27;0.57;;;;;;;2.85;94.13;101401.38;5075438;28;20397;-81
2021/01/08 05:22:40;;;;;;;2.73;0.50;;;;;;;2.79;94.42;101399.34;5074215;28;20029;-81
2021/01/08 05:25:07;;;;;;;1.60;0.43;;;;;;;2.79;94.47;101401.00;5073654;28;20031;-81
2021/01/08 05:27:33;;;;;;;3.90;0.60;;;;;;;2.84;94.11;101402.16;5073737;28;20651;-81
2021/01/08 05:30:15;;;;;;;1.67;0.55;;;;;;;2.86;94.05;101410.75;5073620;28;20115;-81
2021/01/08 05:32:40;;;;;;;2.33;0.40;;;;;;;2.86;94.16;101420.91;5073556;28;20024;-81
2021/01/08 05:35:06;;;;;;;2.78;0.50;;;;;;;2.86;94.17;101418.38;5074631;28;20023;-81
2021/01/08 05:37:32;;;;;;;;;;;;;;;2.85;94.37;101414.06;5074908;28;20024;-81
2021/01/08 05:40:01;;;;;;;2.20;0.70;;;;;;;2.88;94.03;101421.00;5073192;28;19919;-81
2021/01/08 05:42:27;;;;;;;1.53;0.50;;;;;;;2.84;94.11;101421.59;5073494;28;20466;-81
2021/01/08 05:44:53;;;;;;;1.25;0.47;;;;;;;2.79;94.36;101421.28;5073128;28;20025;-81
2021/01/08 05:47:19;;;;;;;3.80;0.70;;;;;;;2.77;94.50;101415.25;5074339;28;20070;-80
2021/01/08 05:49:48;;;;;;;;;;;;;;;2.74;94.51;101420.13;5074809;28;20436;-80
2021/01/08 05:52:15;;;;;;;1.37;0.60;;;;;;;2.83;94.43;101420.72;5072866;28;19916;-80
2021/01/08 05:54:40;;;;;;;1.17;0.50;;;;;;;2.82;94.53;101424.03;5066352;28;20085;-79
2021/01/08 05:57:06;;;;;;;0.80;0.40;;;;;;;2.87;94.23;101426.84;5072716;28;20020;-80
2021/01/08 05:59:31;;;;;;;2.50;0.82;;;;;;;2.89;93.97;101421.09;5072954;28;20638;-80
2021/01/08 06:01:58;;;;;;;2.70;0.53;;;;;;;2.89;93.77;101433.78;5074270;28;20056;-80
2021/01/08 06:04:29;;;;;;;2.47;0.70;;;;;;;2.91;94.09;101432.22;5074218;28;20032;-80
2021/01/08 06:06:54;;;;;;;1.60;0.50;;;;;;;2.91;93.96;101431.34;5074023;28;20478;-80
2021/01/08 06:09:21;;;;;;;1.10;0.50;;;;;;;2.97;93.91;101427.56;5074912;28;20060;-80
2021/01/08 06:11:46;;;;;;;2.40;0.67;;;;;;;2.94;93.91;101434.09;5071622;28;20373;-80
2021/01/08 06:14:16;;;;;;;1.55;0.60;;;;;;;2.91;94.23;101427.13;5075111;28;20046;-80
2021/01/08 06:16:46;;;;;;;0.93;0.60;;;;;;;2.83;94.44;101425.78;5074626;28;20016;-80
2021/01/08 06:19:16;;;;;;;1.97;0.80;;;;;;;2.81;94.74;101429.88;5070487;28;20367;-80
2021/01/08 06:21:43;;;;;;;1.53;0.90;;;;;;;2.89;94.44;101426.16;5073320;28;20016;-80
2021/01/08 06:24:26;;;;;;;1.63;0.80;;;;;;;2.89;94.25;101430.38;5073590;28;20043;-78
2021/01/08 06:26:51;;;;;;;7.30;1.00;;;;;;;2.91;93.95;101434.75;5074234;28;20020;-80
2021/01/08 06:29:19;;;;;;;6.05;0.70;;;;;;;2.90;94.17;101433.00;5073390;28;20529;-79
2021/01/08 06:31:48;;;;;;;1.70;0.63;;;;;;;2.92;93.82;101433.97;5074010;28;20028;-80
2021/01/08 06:34:24;;;;;;;3.23;0.90;;;;;;;2.85;94.27;101439.44;5074104;28;20058;-79
2021/01/08 06:37:02;;;;;;;2.60;1.10;;;;;;;2.90;94.26;101447.34;5070557;28;20086;-80
2021/01/08 06:39:34;;;;;;;3.13;0.93;;;;;;;2.76;93.97;101443.94;5072691;28;20043;-79
2021/01/08 06:42:01;;;;;;;2.07;0.73;;;;;;;2.58;93.96;101445.25;5072523;28;20028;-79
2021/01/08 06:44:29;;;;;;;2.23;0.63;;;;;;;2.42;94.44;101446.81;5073945;28;20020;-80
2021/01/08 06:46:56;;;;;;;2.10;1.03;;;;;;;2.44;94.82;101444.38;5069586;28;20031;-80
2021/01/08 06:49:22;;;;;;;3.00;0.90;;;;;;;2.60;95.11;101446.25;5073803;28;20094;-80
2021/01/08 06:51:47;;;;;;;2.28;1.13;;;;;;;2.72;94.84;101449.59;5073797;28;20086;-80
2021/01/08 06:54:13;;;;;;;2.92;1.05;;;;;;;2.72;94.38;101453.00;5072692;28;20486;-79
2021/01/08 06:56:43;;;;;;;2.38;1.00;;;;;;;2.69;94.30;101452.81;5071655;28;20117;-81
2021/01/08 06:59:10;;;;;;;2.03;1.00;;;;;;;2.62;94.30;101462.47;5073297;28;20150;-79
2021/01/08 07:01:54;;;;;;;4.03;1.33;;;;;;;2.63;94.28;101462.56;5071738;28;20025;-78
2021/01/08 07:04:40;;;;;;;2.77;1.30;;;;;;;2.72;94.70;101462.28;5073315;28;20028;-79
2021/01/08 07:07:11;;;;;;;3.53;1.03;;;;;;;2.67;94.34;101473.78;5072744;28;20037;-79
2021/01/08 07:09:37;;;;;;;4.90;1.40;;;;;;;2.69;94.74;101479.84;5071658;28;20478;-79
2021/01/08 07:12:07;;;;;;;2.10;1.13;;;;;;;2.60;94.75;101476.69;5072648;28;20025;-78
2021/01/08 07:14:35;;;;;;;3.73;1.20;;;;;;;2.45;94.79;101486.72;5073509;28;20035;-80
2021/01/08 07:17:03;;;;;;;4.30;1.30;;;;;;;2.35;95.03;101489.41;5072872;28;20403;-81
2021/01/08 07:19:29;;;;;;;1.90;1.00;;;;;;;2.29;95.25;101483.94;5071189;28;20097;-79
2021/01/08 07:22:02;;;;;;;4.80;1.45;;;;;;;2.25;95.56;101490.44;5072989;28;20020;-78
2021/01/08 07:24:35;;;;;;;2.17;1.10;;;;;;;2.17;95.72;101494.13;5070951;28;20063;-78
2021/01/08 07:27:17;;;;;;;1.97;1.33;;;;;;;2.10;95.78;101492.84;5071093;28;20040;-78
2021/01/08 07:29:50;;;;;;;2.20;1.20;;;;;;;2.09;95.87;101495.25;5070197;28;20111;-78
2021/01/08 07:32:30;;;;;;;3.10;1.00;;;;;;;2.15;96.11;101498.19;5070595;28;20078;-78
2021/01/08 07:34:55;;;;;;;2.60;1.20;;;;;;;2.09;95.79;101502.88;5069824;28;20028;-78
2021/01/08 07:37:20;;;;;;;2.70;1.33;;;;;;;2.10;95.96;101509.69;5070124;28;20037;-79
2021/01/08 07:39:45;;;;;;;9.90;4.20;;;;;;;2.16;96.00;101507.56;5071561;28;20643;-78
2021/01/08 07:42:34;;;;;;;6.60;1.70;;;;;;;2.12;96.09;101508.13;5070207;28;20031;-79
2021/01/08 07:45:00;;;;;;;4.33;1.40;;;;;;;2.21;96.29;101518.00;5070261;28;20502;-78
2021/01/08 07:47:27;;;;;;;4.22;1.55;;;;;;;2.27;96.49;101519.28;5070009;28;20047;-79
2021/01/08 07:50:06;;;;;;;3.13;1.90;;;;;;;2.37;96.17;101521.69;5070016;28;20537;-79
2021/01/08 07:52:42;;;;;;;2.47;1.20;;;;;;;2.27;96.16;101519.28;5069307;28;20107;-78
2021/01/08 07:55:12;;;;;;;2.40;1.20;;;;;;;2.21;96.24;101521.44;5068285;28;20397;-79
2021/01/08 07:57:59;;;;;;;2.83;1.10;;;;;;;2.18;96.11;101534.78;5067304;28;20032;-79
2021/01/08 08:00:28;;;;;;;;;;;;;;;2.37;96.14;101534.38;5069833;28;20020;-79
2021/01/08 08:02:57;;;;;;;2.93;1.40;;;;;;;2.63;95.52;101543.72;5070577;28;19951;-79
2021/01/08 08:05:23;;;;;;;2.13;1.03;;;;;;;2.61;94.64;101540.22;5071682;28;20016;-80
2021/01/08 08:07:52;;;;;;;2.17;1.10;;;;;;;2.54;95.05;101553.25;5071698;28;20024;-79
2021/01/08 08:10:22;;;;;;;2.67;1.10;;;;;;;2.46;95.09;101546.78;5070206;28;20503;-79
2021/01/08 08:12:48;;;;;;;2.90;1.30;;;;;;;2.35;95.27;101556.22;5069774;28;20490;-78
2021/01/08 08:15:16;;;;;;;2.63;1.20;;;;;;;2.32;95.08;101561.06;5070690;28;20105;-79
2021/01/08 08:17:41;;;;;;;2.30;1.30;;;;;;;2.32;95.49;101563.63;5069378;28;20024;-79
2021/01/08 08:20:17;;;;;;;5.28;1.38;;;;;;;2.29;95.80;101568.47;5070008;28;20112;-79
2021/01/08 08:22:42;;;;;;;5.57;1.20;;;;;;;2.31;95.84;101566.03;5069871;28;20039;-78
2021/01/08 08:25:24;;;;;;;4.77;1.40;;;;;;;2.28;96.01;101581.03;5069578;28;20021;-79
2021/01/08 08:28:08;;;;;;;2.33;1.10;;;;;;;2.28;95.90;101581.03;5070453;28;20428;-79
2021/01/08 08:30:33;;;;;;;3.40;1.03;;;;;;;2.29;95.87;101583.69;5070011;28;20023;-79
2021/01/08 08:32:59;;;;;;;5.28;1.30;;;;;;;2.31;95.91;101592.28;5069375;28;20028;-79
2021/01/08 08:35:24;;;;;;;4.00;0.93;;;;;;;2.32;95.82;101591.50;5065431;28;20474;-80
2021/01/08 08:37:56;;;;;;;4.65;1.48;;;;;;;2.32;95.67;101594.03;5068097;28;20032;-79
2021/01/08 08:40:29;;;;;;;2.80;1.30;;;;;;;2.37;95.67;101586.75;5068889;28;20029;-79
2021/01/08 08:42:59;;;;;;;3.10;1.30;;;;;;;2.45;95.93;101599.16;5069192;28;20033;-79
2021/01/08 08:45:30;;;;;;;3.67;1.20;;;;;;;2.59;95.79;101601.72;5067707;28;20079;-79
2021/01/08 08:47:57;;;;;;;2.97;1.10;;;;;;;2.67;95.97;101596.44;5070075;28;20024;-79
2021/01/08 08:50:24;;;;;;;2.30;1.37;;;;;;;2.76;95.96;101601.22;5069036;28;20049;-79
2021/01/08 08:52:50;;;;;;;3.93;1.40;;;;;;;2.83;95.73;101607.59;5071150;28;20021;-80
2021/01/08 08:55:32;;;;;;;2.67;1.10;;;;;;;2.91;95.33;101607.31;5070743;28;20084;-80
2021/01/08 08:58:10;;;;;;;1.93;1.07;;;;;;;3.06;95.24;101608.34;5068598;28;20862;-81
2021/01/08 09:00:41;;;;;;;4.27;1.20;;;;;;;3.18;94.81;101607.38;5066776;28;20028;-80
2021/01/08 09:03:19;;;;;;;3.37;1.13;;;;;;;3.28;94.09;101614.81;5069661;28;20050;-80
2021/01/08 09:05:46;;;;;;;2.00;1.00;;;;;;;3.38;93.93;101617.19;5069148;28;20116;-80
2021/01/08 09:08:18;;;;;;;2.93;1.10;;;;;;;3.47;93.74;101622.84;5070901;28;20017;-80
2021/01/08 09:10:52;;;;;;;3.17;1.30;;;;;;;3.52;93.35;101626.53;5069354;28;20517;-80
2021/01/08 09:13:46;;;;;;;2.20;1.23;;;;;;;3.57;93.45;101625.19;5069185;28;20035;-80
2021/01/08 09:16:17;;;;;;;3.53;1.60;;;;;;;3.70;93.03;101626.88;5067701;28;20020;-80
2021/01/08 09:18:49;;;;;;;4.70;1.70;;;;;;;3.84;92.87;101631.13;5066785;28;20105;-81
2021/01/08 09:21:22;;;;;;;5.03;1.90;;;;;;;3.91;92.88;101624.81;5064365;28;20393;-80
2021/01/08 09:23:49;;;;;;;27.50;4.30;;;;;;;4.03;92.46;101628.09;5069136;28;20028;-81
2021/01/08 09:26:17;;;;;;;63.57;5.40;;;;;;;4.17;92.53;101626.41;5070526;28;20482;-81
2021/01/08 09:28:46;;;;;;;11.10;2.00;;;;;;;4.24;92.16;101633.66;5070454;28;20036;-80
2021/01/08 09:31:12;;;;;;;3.60;1.30;;;;;;;4.37;91.98;101634.47;5069075;28;20429;-80
2021/01/08 09:33:37;;;;;;;5.40;1.75;;;;;;;4.49;91.44;101641.09;5069315;28;20020;-80
2021/01/08 09:36:03;;;;;;;11.15;4.13;;;;;;;4.55;90.67;101651.63;5068928;28;20024;-80
2021/01/08 09:38:29;;;;;;;;;;;;;;;4.60;89.75;101647.72;5069262;28;20029;-79
2021/01/08 09:40:54;;;;;;;7.13;1.83;;;;;;;4.65;89.73;101649.75;5070095;28;19919;-82
2021/01/08 09:43:20;;;;;;;22.52;3.42;;;;;;;4.74;89.67;101656.19;5069026;28;20082;-80
2021/01/08 09:45:59;;;;;;;9.73;2.55;;;;;;;4.68;89.50;101655.03;5070144;28;20025;-80
2021/01/08 09:48:25;;;;;;;3.50;1.80;;;;;;;4.83;88.86;101656.72;5070311;28;20035;-80
2021/01/08 09:51:04;;;;;;;2.27;1.50;;;;;;;4.82;88.70;101658.38;5069506;28;20159;-80
2021/01/08 09:53:30;;;;;;;4.13;2.00;;;;;;;4.87;88.96;101659.53;5070173;28;20036;-80
2021/01/08 09:56:15;;;;;;;17.35;2.60;;;;;;;4.94;88.40;101650.63;5071915;28;20043;-80
2021/01/08 09:58:41;;;;;;;11.30;2.87;;;;;;;4.98;88.46;101655.97;5072543;28;20482;-80
2021/01/08 10:01:08;;;;;;;;;;;;;;;5.14;88.07;101667.94;5074636;28;20024;-78
2021/01/08 10:03:33;;;;;;;27.73;3.65;;;;;;;5.18;87.02;101662.22;5073439;28;19913;-79
2021/01/08 10:06:09;;;;;;;9.48;2.65;;;;;;;5.63;86.11;101655.47;5074214;28;20141;-78
2021/01/08 10:08:35;;;;;;;4.73;1.87;;;;;;;6.00;82.66;101658.44;5072503;28;20111;-79
2021/01/08 10:11:01;;;;;;;4.60;1.70;;;;;;;6.57;78.65;101657.28;5074053;28;20270;-79
2021/01/08 10:13:26;;;;;;;2.40;1.23;;;;;;;7.92;75.72;101649.53;5072488;28;20394;-79
2021/01/08 10:15:54;;;;;;;48.65;3.53;;;;;;;9.40;72.39;101646.75;5072895;28;20028;-80
2021/01/08 10:18:23;;;;;;;8.18;1.83;;;;;;;10.31;68.91;101646.09;5071304;28;20055;-81
2021/01/08 10:20:53;;;;;;;10.00;2.08;;;;;;;10.82;66.77;101645.44;5073164;28;20028;-79
2021/01/08 10:23:21;;;;;;;5.57;1.73;;;;;;;10.34;66.99;101649.66;5073182;28;20059;-80
2021/01/08 10:25:47;;;;;;;3.35;1.70;;;;;;;10.01;68.56;101658.59;5073327;28;20020;-80
2021/01/08 10:28:17;;;;;;;3.97;1.83;;;;;;;9.58;69.33;101662.91;5072430;28;20551;-80
2021/01/08 10:30:43;;;;;;;2.90;1.48;;;;;;;8.65;71.22;101666.63;5072850;28;20016;-81
2021/01/08 10:33:09;;;;;;;2.70;1.30;;;;;;;8.00;73.83;101672.13;5073511;28;20116;-80
2021/01/08 10:35:35;;;;;;;;;;;;;;;7.63;73.70;101676.28;5071766;28;20070;-80
2021/01/08 10:38:01;;;;;;;2.75;1.27;;;;;;;7.27;76.91;101671.09;5071821;28;19916;-81
2021/01/08 10:40:26;;;;;;;2.40;1.15;;;;;;;7.19;78.74;101674.97;5074694;28;20048;-80
2021/01/08 10:42:53;;;;;;;2.70;1.30;;;;;;;7.58;77.26;101673.50;5073000;28;20446;-81
2021/01/08 10:45:18;;;;;;;3.88;1.33;;;;;;;7.42;76.26;101679.53;5072218;28;20406;-81
2021/01/08 10:47:44;;;;;;;2.20;1.08;;;;;;;6.88;77.09;101677.63;5072417;28;20017;-81
2021/01/08 10:50:11;;;;;;;3.50;1.33;;;;;;;6.56;78.03;101681.03;5072232;28;20036;-81
2021/01/08 10:52:36;;;;;;;2.10;1.10;;;;;;;6.30;80.09;101683.88;5072075;28;20052;-81
2021/01/08 10:55:03;;;;;;;3.30;1.73;;;;;;;6.08;81.16;101684.34;5071909;28;20036;-80
2021/01/08 10:57:29;;;;;;;3.73;1.13;;;;;;;5.91;81.54;101686.00;5072581;28;20025;-81
2021/01/08 10:59:54;;;;;;;5.05;1.58;;;;;;;5.78;81.21;101691.13;5073091;28;20071;-81
2021/01/08 11:02:19;;;;;;;3.85;1.13;;;;;;;5.48;81.90;101680.94;5071200;28;20024;-81
2021/01/08 11:04:46;;;;;;;10.50;1.42;;;;;;;5.26;82.96;101698.34;5070913;28;20032;-81
2021/01/08 11:07:11;;;;;;;17.10;2.20;;;;;;;5.08;83.28;101689.63;5071206;28;20031;-81
2021/01/08 11:09:37;;;;;;;4.00;1.40;;;;;;;4.90;83.85;101697.94;5071742;28;20406;-80
2021/01/08 11:12:03;;;;;;;5.25;2.00;;;;;;;4.68;84.17;101699.97;5072545;28;20565;-79
2021/01/08 11:14:28;;;;;;;;;;;;;;;4.60;83.63;101696.06;5066798;28;20036;-80
2021/01/08 11:16:54;;;;;;;3.33;1.87;;;;;;;4.73;84.89;101697.69;5071443;28;19912;-81
2021/01/08 11:19:21;;;;;;;3.30;2.30;;;;;;;4.76;84.74;101698.75;5057558;28;20045;-80
2021/01/08 11:21:46;;;;;;;14.30;3.10;;;;;;;4.93;84.51;101703.22;5071070;28;20107;-80
2021/01/08 11:24:12;;;;;;;2.58;1.77;;;;;;;4.98;81.96;101693.28;5069225;28;20283;-82
2021/01/08 11:26:37;;;;;;;2.78;1.63;;;;;;;5.17;83.17;101697.78;5069849;28;20070;-80
2021/01/08 11:29:03;;;;;;;5.13;1.95;;;;;;;5.30;84.50;101695.19;5072554;28;20038;-80
2021/01/08 11:31:33;;;;;;;12.20;2.58;;;;;;;5.08;84.56;101702.34;5071671;28;20017;-81
2021/01/08 11:33:58;;;;;;;18.63;2.37;;;;;;;5.01;84.92;101708.75;5072859;28;20025;-80
2021/01/08 11:36:23;;;;;;;11.10;2.33;;;;;;;4.83;85.16;101712.72;5071107;28;20818;-84
2021/01/08 11:38:49;;;;;;;4.65;1.88;;;;;;;4.79;86.21;101705.69;5072239;28;20423;-80
2021/01/08 11:41:17;;;;;;;2.90;1.73;;;;;;;4.73;86.03;101707.88;5071404;28;20024;-82